Elgin, Minnesota
Current Conditions -  °F | °C
As of 3:33 AM on Thursday 27 Nov 2014 (Local Time) from K9MN Reporting Station
Clear Clear  
Wind Chill: -7°   Ceiling: Unl
Heat Index:   Visibility: 10mi
Dew Point: -1°   Wind: 13mph
Humidity: 66%   Direction: 310°NW
Pressure: 30.38"   Gusts: 17mph
Location:  44.13°N, 92.25°W
Report Text: K9MN 270933Z AUTO 31011G15KT 10SM CLR M13/M18 A3038 RMK AO1 T11301181
Loading
Personal Weather Stations






























Interactive Weather Map New forecast layout! Learn more

10-Day Weather Forecast

Advertisements
Track Severe Weather on mobile